Time;durP1;ratioP1;P1;durP2;ratioP2;P2;SDS_P1;SDS_P2;PMS_P1;PMS_P2;Temp;Humidity;BMP_temperature;BMP_pressure;BME280_temperature;BME280_humidity;BME280_pressure;Samples;Min_cycle;Max_cycle;Signal;HPM_P1;HPM_P2
2024/04/18 00:00:34;;;;;;;221.43;65.05;;;;;;;;;;5342953;26;20782;-43
2024/04/18 00:03:00;;;;;;;220.43;61.47;;;;;;;;;;5344349;26;20224;-43
2024/04/18 00:05:26;;;;;;;220.07;60.47;;;;;;;;;;5345721;26;20754;-43
2024/04/18 00:07:52;;;;;;;217.00;58.17;;;;;;;;;;5345888;26;20583;-43
2024/04/18 00:10:18;;;;;;;219.93;60.67;;;;;;;;;;5346115;26;20452;-43
2024/04/18 00:12:44;;;;;;;216.57;57.77;;;;;;;;;;5346218;26;20813;-43
2024/04/18 00:15:10;;;;;;;226.03;65.67;;;;;;;;;;5345865;26;20525;-43
2024/04/18 00:17:37;;;;;;;220.67;61.47;;;;;;;;;;5345783;26;20440;-43
2024/04/18 00:20:03;;;;;;;221.88;63.85;;;;;;;;;;5338140;26;20462;-43
2024/04/18 00:22:29;;;;;;;217.25;59.78;;;;;;;;;;5345827;26;20277;-43
2024/04/18 00:24:55;;;;;;;220.50;60.55;;;;;;;;;;5345638;26;20705;-42
2024/04/18 00:27:21;;;;;;;218.80;58.63;;;;;;;;;;5345459;26;20222;-43
2024/04/18 00:29:47;;;;;;;220.52;63.45;;;;;;;;;;5346184;26;20443;-43
2024/04/18 00:32:16;;;;;;;223.43;63.37;;;;;;;;;;5346037;26;20616;-43
2024/04/18 00:34:42;;;;;;;217.32;57.75;;;;;;;;;;5346133;26;20514;-43
2024/04/18 00:37:08;;;;;;;222.07;61.53;;;;;;;;;;5345376;26;20233;-43
2024/04/18 00:39:34;;;;;;;218.97;60.83;;;;;;;;;;5345860;26;20454;-43
2024/04/18 00:42:00;;;;;;;221.87;61.83;;;;;;;;;;5349506;26;20458;-43
2024/04/18 00:44:27;;;;;;;220.38;61.47;;;;;;;;;;5345636;26;20461;-43
2024/04/18 00:46:53;;;;;;;221.55;62.97;;;;;;;;;;5344813;26;20226;-43
2024/04/18 00:49:19;;;;;;;223.50;64.50;;;;;;;;;;5345763;26;20280;-43
2024/04/18 00:51:45;;;;;;;222.15;63.53;;;;;;;;;;5345598;26;20455;-43
2024/04/18 00:54:11;;;;;;;221.70;62.75;;;;;;;;;;5345741;26;20269;-43
2024/04/18 00:56:38;;;;;;;225.75;66.28;;;;;;;;;;5345145;26;20329;-43
2024/04/18 00:59:05;;;;;;;222.57;63.92;;;;;;;;;;5340058;26;20228;-43
2024/04/18 01:01:31;;;;;;;223.48;62.92;;;;;;;;;;5344585;26;20220;-43
2024/04/18 01:03:57;;;;;;;221.45;62.60;;;;;;;;;;5344977;26;20630;-43
2024/04/18 01:06:23;;;;;;;219.80;59.60;;;;;;;;;;5344573;26;20259;-43
2024/04/18 01:08:50;;;;;;;223.77;63.05;;;;;;;;;;5345023;26;20225;-43
2024/04/18 01:11:16;;;;;;;220.93;62.90;;;;;;;;;;5345084;26;20829;-43
2024/04/18 01:13:42;;;;;;;222.07;63.07;;;;;;;;;;5343818;26;20238;-43
2024/04/18 01:16:08;;;;;;;221.00;62.05;;;;;;;;;;5344709;26;20509;-43
2024/04/18 01:18:35;;;;;;;221.18;62.17;;;;;;;;;;5345203;26;20605;-43
2024/04/18 01:21:01;;;;;;;219.00;59.40;;;;;;;;;;5345178;26;20275;-43
2024/04/18 01:23:27;;;;;;;219.65;60.40;;;;;;;;;;5345623;26;20337;-43
2024/04/18 01:25:53;;;;;;;223.63;65.15;;;;;;;;;;5344639;26;20263;-43
2024/04/18 01:28:20;;;;;;;220.35;60.53;;;;;;;;;;5342625;26;20273;-43
2024/04/18 01:30:46;;;;;;;224.15;64.68;;;;;;;;;;5344759;26;20279;-43
2024/04/18 01:33:12;;;;;;;224.77;64.35;;;;;;;;;;5345169;26;20231;-43
2024/04/18 01:35:38;;;;;;;219.02;61.03;;;;;;;;;;5344776;26;20224;-43
2024/04/18 01:38:04;;;;;;;221.40;62.70;;;;;;;;;;5344988;26;20229;-43
2024/04/18 01:40:30;;;;;;;219.47;63.07;;;;;;;;;;5345089;26;20569;-43
2024/04/18 01:42:56;;;;;;;219.87;60.40;;;;;;;;;;5345065;26;20511;-43
2024/04/18 01:45:22;;;;;;;220.47;61.27;;;;;;;;;;5344692;26;20462;-42
2024/04/18 01:47:48;;;;;;;222.30;62.55;;;;;;;;;;5342832;26;20465;-43
2024/04/18 01:50:14;;;;;;;220.47;62.80;;;;;;;;;;5344797;26;20340;-43
2024/04/18 01:52:40;;;;;;;217.45;58.92;;;;;;;;;;5343519;26;20525;-43
2024/04/18 01:55:06;;;;;;;223.40;64.70;;;;;;;;;;5343752;26;20223;-43
2024/04/18 01:57:33;;;;;;;220.95;60.92;;;;;;;;;;5344587;26;21006;-43
2024/04/18 01:59:59;;;;;;;221.90;64.15;;;;;;;;;;5344419;26;20223;-43
2024/04/18 02:02:25;;;;;;;218.07;59.07;;;;;;;;;;5343737;26;20268;-43
2024/04/18 02:04:51;;;;;;;216.90;58.72;;;;;;;;;;5359554;26;20903;-42
2024/04/18 02:07:17;;;;;;;218.07;57.67;;;;;;;;;;5330883;26;20228;-43
2024/04/18 02:09:43;;;;;;;220.90;61.20;;;;;;;;;;5344835;26;20501;-43
2024/04/18 02:12:09;;;;;;;219.93;63.00;;;;;;;;;;5344373;26;21015;-43
2024/04/18 02:14:35;;;;;;;218.80;58.77;;;;;;;;;;5345245;26;20347;-44
2024/04/18 02:17:01;;;;;;;218.00;58.72;;;;;;;;;;5344033;26;20503;-44
2024/04/18 02:19:28;;;;;;;218.95;59.67;;;;;;;;;;5344672;26;20771;-43
2024/04/18 02:21:54;;;;;;;219.32;61.85;;;;;;;;;;5348990;26;20731;-43
2024/04/18 02:24:20;;;;;;;220.30;62.08;;;;;;;;;;5344670;26;20290;-43
2024/04/18 02:26:46;;;;;;;218.03;58.70;;;;;;;;;;5343429;26;20346;-43
2024/04/18 02:29:12;;;;;;;218.18;58.47;;;;;;;;;;5344489;26;20461;-43
2024/04/18 02:31:39;;;;;;;220.70;62.77;;;;;;;;;;5344872;26;20275;-43
2024/04/18 02:34:05;;;;;;;220.93;62.25;;;;;;;;;;5344539;26;20454;-43
2024/04/18 02:36:31;;;;;;;216.65;58.42;;;;;;;;;;5343910;26;20223;-43
2024/04/18 02:38:58;;;;;;;215.53;56.27;;;;;;;;;;5344169;26;20219;-43
2024/04/18 02:41:24;;;;;;;216.45;56.90;;;;;;;;;;5344183;26;20518;-43
2024/04/18 02:43:51;;;;;;;217.77;58.67;;;;;;;;;;5344046;26;20704;-43
2024/04/18 02:46:17;;;;;;;221.00;60.35;;;;;;;;;;5343661;26;20453;-43
2024/04/18 02:48:43;;;;;;;219.38;59.30;;;;;;;;;;5344517;26;20272;-43
2024/04/18 02:51:09;;;;;;;219.67;60.10;;;;;;;;;;5344349;26;20721;-43
2024/04/18 02:53:35;;;;;;;221.38;63.38;;;;;;;;;;5343742;26;20808;-43
2024/04/18 02:56:01;;;;;;;218.75;58.28;;;;;;;;;;5343464;26;20277;-43
2024/04/18 02:58:27;;;;;;;220.27;62.50;;;;;;;;;;5343733;26;20267;-44
2024/04/18 03:00:53;;;;;;;219.63;60.20;;;;;;;;;;5343970;26;20465;-43
2024/04/18 03:03:19;;;;;;;221.93;63.97;;;;;;;;;;5344880;26;20461;-43
2024/04/18 03:05:45;;;;;;;222.57;61.47;;;;;;;;;;5343594;26;20451;-43
2024/04/18 03:08:11;;;;;;;222.07;62.80;;;;;;;;;;5343688;26;21101;-43
2024/04/18 03:10:37;;;;;;;216.63;57.07;;;;;;;;;;5343611;26;20508;-43
2024/04/18 03:13:03;;;;;;;217.87;59.17;;;;;;;;;;5344287;26;20530;-43
2024/04/18 03:15:29;;;;;;;218.45;59.47;;;;;;;;;;5343549;26;20452;-43
2024/04/18 03:17:55;;;;;;;219.27;61.20;;;;;;;;;;5343844;26;20313;-43
2024/04/18 03:20:21;;;;;;;221.13;60.95;;;;;;;;;;5343807;26;20451;-43
2024/04/18 03:22:47;;;;;;;218.45;57.80;;;;;;;;;;5348124;26;20277;-43
2024/04/18 03:25:13;;;;;;;227.73;66.32;;;;;;;;;;5343095;26;20223;-43
2024/04/18 03:27:39;;;;;;;221.15;61.17;;;;;;;;;;5343353;26;20321;-43
2024/04/18 03:30:05;;;;;;;219.37;59.23;;;;;;;;;;5343433;26;20609;-43
2024/04/18 03:32:31;;;;;;;218.93;59.25;;;;;;;;;;5343593;26;20450;-43
2024/04/18 03:34:57;;;;;;;220.32;60.72;;;;;;;;;;5343634;26;20260;-43
2024/04/18 03:37:23;;;;;;;218.05;58.40;;;;;;;;;;5342062;26;20773;-43
2024/04/18 03:39:49;;;;;;;219.17;59.43;;;;;;;;;;5343318;26;20222;-43
2024/04/18 03:42:15;;;;;;;222.27;64.73;;;;;;;;;;5343158;26;20505;-43
2024/04/18 03:44:41;;;;;;;214.15;57.17;;;;;;;;;;5343607;26;20849;-43
2024/04/18 03:47:07;;;;;;;218.63;58.43;;;;;;;;;;5342842;26;20223;-43
2024/04/18 03:49:33;;;;;;;214.40;56.90;;;;;;;;;;5343241;26;21012;-43
2024/04/18 03:51:59;;;;;;;218.37;59.37;;;;;;;;;;5342993;26;20224;-43
2024/04/18 03:54:25;;;;;;;218.50;60.83;;;;;;;;;;5343012;26;20501;-43
2024/04/18 03:56:51;;;;;;;217.97;58.63;;;;;;;;;;5342721;26;20625;-42
2024/04/18 03:59:17;;;;;;;219.03;60.67;;;;;;;;;;5343667;26;20457;-43
2024/04/18 04:01:43;;;;;;;214.97;55.53;;;;;;;;;;5343041;26;20781;-43
2024/04/18 04:04:09;;;;;;;219.17;60.33;;;;;;;;;;5343215;26;20445;-43
2024/04/18 04:06:35;;;;;;;215.50;57.00;;;;;;;;;;5342849;26;20440;-43
2024/04/18 04:09:01;;;;;;;217.57;58.43;;;;;;;;;;5342876;26;20843;-43
2024/04/18 04:11:27;;;;;;;218.07;58.67;;;;;;;;;;5342931;26;20449;-44
2024/04/18 04:13:54;;;;;;;217.48;57.45;;;;;;;;;;5343198;26;20509;-43
2024/04/18 04:16:20;;;;;;;217.98;56.42;;;;;;;;;;5342293;26;20259;-43
2024/04/18 04:18:50;;;;;;;218.50;56.83;;;;;;;;;;5342885;26;20278;-43
2024/04/18 04:21:16;;;;;;;218.52;57.67;;;;;;;;;;5347465;26;20721;-43
2024/04/18 04:23:43;;;;;;;217.82;57.90;;;;;;;;;;5342757;26;20261;-43
2024/04/18 04:26:09;;;;;;;218.82;57.60;;;;;;;;;;5342219;26;20269;-43
2024/04/18 04:28:34;;;;;;;217.32;55.60;;;;;;;;;;5342856;26;20261;-43
2024/04/18 04:31:00;;;;;;;216.47;56.07;;;;;;;;;;5342730;26;20223;-43
2024/04/18 04:33:27;;;;;;;217.20;57.37;;;;;;;;;;5342824;26;20450;-43
2024/04/18 04:35:53;;;;;;;220.45;59.65;;;;;;;;;;5342136;26;20443;-43
2024/04/18 04:38:19;;;;;;;215.30;55.70;;;;;;;;;;5342556;26;20269;-43
2024/04/18 04:40:45;;;;;;;217.77;59.90;;;;;;;;;;5350583;26;20457;-43
2024/04/18 04:43:11;;;;;;;216.87;58.00;;;;;;;;;;5343060;26;20473;-43
2024/04/18 04:45:37;;;;;;;218.60;59.00;;;;;;;;;;5342144;26;20449;-43
2024/04/18 04:48:03;;;;;;;217.70;59.33;;;;;;;;;;5342685;26;20509;-43
2024/04/18 04:50:29;;;;;;;216.38;58.40;;;;;;;;;;5345601;26;20449;-43
2024/04/18 04:52:55;;;;;;;216.55;58.00;;;;;;;;;;5345567;26;20293;-43
2024/04/18 04:55:21;;;;;;;220.93;60.10;;;;;;;;;;5345182;26;20494;-43
2024/04/18 04:57:47;;;;;;;215.40;58.10;;;;;;;;;;5345850;26;20223;-43
2024/04/18 05:00:13;;;;;;;219.97;58.93;;;;;;;;;;5345570;26;20453;-43
2024/04/18 05:02:39;;;;;;;216.77;59.05;;;;;;;;;;5345549;26;20570;-43
2024/04/18 05:05:05;;;;;;;220.53;62.33;;;;;;;;;;5345291;26;20230;-43
2024/04/18 05:07:31;;;;;;;217.07;60.70;;;;;;;;;;5345325;26;20528;-43
2024/04/18 05:09:58;;;;;;;220.20;60.08;;;;;;;;;;5345358;26;20512;-43
2024/04/18 05:12:23;;;;;;;221.27;63.10;;;;;;;;;;5345419;26;20274;-43
2024/04/18 05:14:49;;;;;;;221.27;62.87;;;;;;;;;;5345315;26;20232;-43
2024/04/18 05:17:16;;;;;;;218.23;58.83;;;;;;;;;;5344854;26;20453;-43
2024/04/18 05:19:42;;;;;;;222.63;63.63;;;;;;;;;;5345470;26;20521;-43
2024/04/18 05:22:07;;;;;;;222.60;64.17;;;;;;;;;;5349644;26;20227;-43
2024/04/18 05:24:34;;;;;;;219.10;61.03;;;;;;;;;;5345317;26;20461;-43
2024/04/18 05:27:00;;;;;;;220.90;64.55;;;;;;;;;;5345568;26;20452;-43
2024/04/18 05:32:10;;;;;;;222.30;61.45;;;;;;;;;;5345121;26;20266;-43
2024/04/18 05:34:36;;;;;;;225.57;68.60;;;;;;;;;;5341895;26;20715;-43
2024/04/18 05:37:02;;;;;;;219.77;63.17;;;;;;;;;;5344519;26;20450;-43
2024/04/18 05:39:28;;;;;;;221.85;64.22;;;;;;;;;;5345105;26;20504;-43
2024/04/18 05:41:55;;;;;;;226.73;69.00;;;;;;;;;;5344785;26;20267;-43
2024/04/18 05:44:21;;;;;;;220.73;61.92;;;;;;;;;;5344781;26;20446;-43
2024/04/18 05:46:46;;;;;;;223.05;63.88;;;;;;;;;;5344377;26;20231;-43
2024/04/18 05:49:12;;;;;;;222.20;64.57;;;;;;;;;;5345199;26;20219;-43
2024/04/18 05:51:38;;;;;;;220.23;60.97;;;;;;;;;;5345164;26;20507;-43
2024/04/18 05:54:04;;;;;;;220.87;62.33;;;;;;;;;;5351509;26;20449;-43
2024/04/18 05:56:30;;;;;;;221.27;62.70;;;;;;;;;;5344291;26;20455;-43
2024/04/18 05:58:56;;;;;;;222.00;62.90;;;;;;;;;;5344746;26;20458;-42
2024/04/18 06:01:22;;;;;;;220.97;61.90;;;;;;;;;;5351398;26;20864;-43
2024/04/18 06:03:48;;;;;;;221.70;63.47;;;;;;;;;;5344384;26;20521;-43
2024/04/18 06:06:14;;;;;;;220.70;61.10;;;;;;;;;;5344199;26;20510;-43
2024/04/18 06:08:40;;;;;;;220.80;62.63;;;;;;;;;;5344381;26;20465;-43
2024/04/18 06:11:06;;;;;;;219.10;61.70;;;;;;;;;;5344580;26;20557;-43
2024/04/18 06:13:35;;;;;;;221.77;64.20;;;;;;;;;;5344735;26;20827;-43
2024/04/18 06:16:00;;;;;;;223.38;65.53;;;;;;;;;;5344094;26;20562;-43
2024/04/18 06:18:29;;;;;;;223.97;66.10;;;;;;;;;;5344271;26;20237;-43
2024/04/18 06:20:55;;;;;;;221.43;61.00;;;;;;;;;;5344335;26;20465;-43
2024/04/18 06:23:21;;;;;;;222.88;64.00;;;;;;;;;;5344177;26;20228;-43
2024/04/18 06:25:48;;;;;;;224.73;67.43;;;;;;;;;;5343948;26;20225;-43
2024/04/18 06:28:14;;;;;;;227.45;70.32;;;;;;;;;;5344266;26;20276;-43
2024/04/18 06:30:41;;;;;;;220.98;61.88;;;;;;;;;;5344003;26;20228;-43
2024/04/18 06:33:07;;;;;;;223.60;66.20;;;;;;;;;;5344194;26;20225;-43
2024/04/18 06:35:33;;;;;;;225.70;66.93;;;;;;;;;;5344392;26;20263;-43
2024/04/18 06:37:59;;;;;;;221.40;63.22;;;;;;;;;;5343972;26;20566;-43
2024/04/18 06:40:25;;;;;;;224.80;65.63;;;;;;;;;;5344379;26;20255;-42
2024/04/18 06:42:51;;;;;;;225.00;66.20;;;;;;;;;;5344272;26;20455;-43
2024/04/18 06:45:18;;;;;;;226.60;66.10;;;;;;;;;;5343705;26;20447;-43
2024/04/18 06:47:44;;;;;;;225.18;64.82;;;;;;;;;;5343718;26;20253;-43
2024/04/18 06:50:10;;;;;;;224.35;64.38;;;;;;;;;;5343924;26;20567;-43
2024/04/18 06:52:36;;;;;;;225.05;64.28;;;;;;;;;;5343751;26;20224;-43
2024/04/18 06:55:02;;;;;;;227.77;67.28;;;;;;;;;;5337524;26;20779;-43
2024/04/18 06:57:28;;;;;;;230.32;71.28;;;;;;;;;;5344077;26;20221;-43
2024/04/18 06:59:54;;;;;;;229.70;71.43;;;;;;;;;;5343720;26;20225;-43
2024/04/18 07:02:20;;;;;;;227.55;66.82;;;;;;;;;;5343620;26;20589;-43
2024/04/18 07:04:46;;;;;;;229.67;69.90;;;;;;;;;;5343674;26;20317;-43
2024/04/18 07:07:13;;;;;;;227.90;66.90;;;;;;;;;;5342695;26;20460;-43
2024/04/18 07:09:39;;;;;;;228.07;67.78;;;;;;;;;;5343030;26;21143;-42
2024/04/18 07:12:06;;;;;;;227.03;68.23;;;;;;;;;;5336377;26;20242;-43
2024/04/18 07:14:32;;;;;;;228.95;68.95;;;;;;;;;;5351052;26;20570;-43
2024/04/18 07:16:58;;;;;;;227.43;66.38;;;;;;;;;;5349870;26;20230;-43
2024/04/18 07:19:24;;;;;;;229.63;68.47;;;;;;;;;;5343717;26;20662;-43
2024/04/18 07:21:50;;;;;;;227.60;67.80;;;;;;;;;;5343061;26;20504;-43
2024/04/18 07:24:16;;;;;;;227.68;66.57;;;;;;;;;;5343460;26;20529;-43
2024/04/18 07:26:42;;;;;;;229.97;72.00;;;;;;;;;;5343100;26;20227;-43
2024/04/18 07:29:09;;;;;;;227.02;66.32;;;;;;;;;;5347683;26;20454;-43
2024/04/18 07:31:36;;;;;;;229.38;69.28;;;;;;;;;;5343353;26;20275;-43
2024/04/18 07:34:01;;;;;;;226.35;65.75;;;;;;;;;;5343503;26;20232;-43
2024/04/18 07:36:27;;;;;;;229.53;68.37;;;;;;;;;;5342926;26;20607;-43
2024/04/18 07:38:55;;;;;;;227.47;66.07;;;;;;;;;;5343412;26;20468;-43
2024/04/18 07:41:21;;;;;;;227.45;65.38;;;;;;;;;;5343336;26;20469;-43
2024/04/18 07:43:47;;;;;;;227.45;66.22;;;;;;;;;;5343633;26;20667;-43
2024/04/18 07:46:13;;;;;;;229.47;66.07;;;;;;;;;;5343216;26;20228;-43
2024/04/18 07:48:40;;;;;;;233.00;70.32;;;;;;;;;;5343199;26;20865;-43
2024/04/18 07:51:06;;;;;;;236.18;71.93;;;;;;;;;;5343083;26;20387;-44
2024/04/18 07:53:32;;;;;;;230.93;67.47;;;;;;;;;;5342901;26;20225;-43
2024/04/18 07:55:58;;;;;;;233.65;68.18;;;;;;;;;;5342661;26;20505;-43
2024/04/18 07:58:26;;;;;;;233.23;71.35;;;;;;;;;;5342910;26;20225;-43
2024/04/18 08:00:52;;;;;;;233.50;70.00;;;;;;;;;;5343039;26;20222;-43
2024/04/18 08:03:18;;;;;;;233.45;72.85;;;;;;;;;;5342963;26;20654;-43
2024/04/18 08:05:45;;;;;;;232.75;72.53;;;;;;;;;;5342325;26;20273;-42
2024/04/18 08:08:11;;;;;;;233.90;69.78;;;;;;;;;;5343247;26;20233;-43
2024/04/18 08:10:37;;;;;;;235.90;73.53;;;;;;;;;;5342766;26;20253;-43
2024/04/18 08:13:03;;;;;;;236.43;74.50;;;;;;;;;;5342981;26;20226;-43
2024/04/18 08:15:29;;;;;;;235.93;73.23;;;;;;;;;;5335675;26;20270;-43
2024/04/18 08:17:56;;;;;;;234.17;71.40;;;;;;;;;;5342740;26;20462;-43
2024/04/18 08:20:22;;;;;;;239.70;75.70;;;;;;;;;;5342515;26;20445;-43
2024/04/18 08:22:50;;;;;;;239.00;77.40;;;;;;;;;;5342623;26;20268;-43
2024/04/18 08:25:16;;;;;;;242.07;77.65;;;;;;;;;;5343556;26;20453;-42
2024/04/18 08:27:42;;;;;;;239.13;77.95;;;;;;;;;;5345744;26;20225;-42
2024/04/18 08:30:08;;;;;;;235.57;71.87;;;;;;;;;;5346504;26;20266;-43
2024/04/18 08:32:35;;;;;;;240.77;76.22;;;;;;;;;;5345446;26;21046;-44
2024/04/18 08:35:00;;;;;;;243.15;83.15;;;;;;;;;;5345242;26;20265;-43
2024/04/18 08:37:26;;;;;;;241.37;78.97;;;;;;;;;;5331758;26;20224;-42
2024/04/18 08:39:52;;;;;;;242.23;78.10;;;;;;;;;;5345375;26;20468;-43
2024/04/18 08:42:22;;;;;;;247.33;85.47;;;;;;;;;;5345255;26;20470;-43
2024/04/18 08:44:52;;;;;;;241.67;78.87;;;;;;;;;;5345970;26;20471;-43
2024/04/18 08:47:18;;;;;;;242.90;78.47;;;;;;;;;;5345375;26;20451;-42
2024/04/18 08:49:45;;;;;;;242.90;77.03;;;;;;;;;;5345830;26;20461;-44
2024/04/18 08:52:12;;;;;;;249.00;83.73;;;;;;;;;;5345709;26;20575;-43
2024/04/18 08:54:38;;;;;;;244.67;81.13;;;;;;;;;;5345848;26;20875;-43
2024/04/18 08:57:06;;;;;;;241.67;77.20;;;;;;;;;;5345004;26;20524;-43
2024/04/18 08:59:32;;;;;;;243.53;78.97;;;;;;;;;;5346440;26;20445;-44
2024/04/18 09:01:59;;;;;;;243.47;81.17;;;;;;;;;;5340151;26;20508;-43
2024/04/18 09:04:25;;;;;;;243.27;79.60;;;;;;;;;;5350233;26;20573;-43
2024/04/18 09:06:51;;;;;;;240.00;74.00;;;;;;;;;;5360170;26;20460;-43
2024/04/18 09:09:18;;;;;;;240.90;77.87;;;;;;;;;;5345070;26;20468;-43
2024/04/18 09:11:47;;;;;;;240.57;76.88;;;;;;;;;;5345384;26;20451;-42
2024/04/18 09:14:13;;;;;;;239.80;78.53;;;;;;;;;;5345496;26;20232;-44
2024/04/18 09:16:39;;;;;;;241.47;79.87;;;;;;;;;;5345234;26;20451;-43
2024/04/18 09:19:05;;;;;;;239.03;77.13;;;;;;;;;;5351856;26;20465;-44
2024/04/18 09:21:32;;;;;;;246.68;83.75;;;;;;;;;;5336692;26;20881;-43
2024/04/18 09:23:58;;;;;;;246.97;81.40;;;;;;;;;;5341728;26;20314;-41
2024/04/18 09:26:27;;;;;;;245.50;81.60;;;;;;;;;;5343046;26;20456;-41
2024/04/18 09:28:53;;;;;;;240.37;77.67;;;;;;;;;;5345162;26;20501;-41
2024/04/18 09:31:19;;;;;;;247.17;83.77;;;;;;;;;;5342914;26;20813;-41
2024/04/18 09:33:46;;;;;;;242.77;79.50;;;;;;;;;;5345072;26;20453;-41
2024/04/18 09:36:16;;;;;;;241.67;79.67;;;;;;;;;;5342994;26;20509;-41
2024/04/18 09:38:46;;;;;;;242.30;79.07;;;;;;;;;;5345199;26;21101;-41
2024/04/18 09:41:12;;;;;;;238.77;78.10;;;;;;;;;;5345062;26;20455;-41
2024/04/18 09:44:14;;;;;;;240.00;76.07;;;;;;;;;;5344865;26;20266;-40
2024/04/18 09:46:41;;;;;;;242.90;80.18;;;;;;;;;;5313358;26;20377;-41
2024/04/18 09:49:06;;;;;;;244.55;83.65;;;;;;;;;;5344674;26;20284;-41
2024/04/18 09:51:32;;;;;;;238.70;77.47;;;;;;;;;;5344074;26;20699;-41
2024/04/18 09:53:59;;;;;;;239.50;78.33;;;;;;;;;;5345135;26;20453;-41
2024/04/18 09:56:26;;;;;;;242.07;78.70;;;;;;;;;;5344840;26;20810;-41
2024/04/18 09:58:53;;;;;;;240.88;80.07;;;;;;;;;;5343482;26;21030;-41
2024/04/18 10:01:19;;;;;;;242.40;77.90;;;;;;;;;;5344760;26;20592;-41
2024/04/18 10:03:45;;;;;;;240.47;76.50;;;;;;;;;;5344917;26;20457;-41
2024/04/18 10:06:14;;;;;;;241.23;78.47;;;;;;;;;;5344393;26;21036;-41
2024/04/18 10:08:41;;;;;;;246.73;82.37;;;;;;;;;;5344613;26;20457;-41
2024/04/18 10:11:08;;;;;;;244.20;79.57;;;;;;;;;;5344369;26;20460;-41
2024/04/18 10:13:36;;;;;;;241.87;78.97;;;;;;;;;;5344217;26;20523;-41
2024/04/18 10:16:12;;;;;;;240.40;76.83;;;;;;;;;;5344235;26;20468;-41
2024/04/18 10:18:39;;;;;;;240.07;77.17;;;;;;;;;;5332768;26;20448;-41
2024/04/18 10:21:12;;;;;;;239.03;75.77;;;;;;;;;;5349194;26;20508;-41
2024/04/18 10:23:46;;;;;;;240.38;79.97;;;;;;;;;;5344274;26;20512;-41
2024/04/18 10:26:15;;;;;;;240.43;79.50;;;;;;;;;;5343963;26;20225;-41
2024/04/18 10:28:45;;;;;;;241.18;78.10;;;;;;;;;;5344229;26;20233;-41
2024/04/18 10:31:11;;;;;;;245.32;82.05;;;;;;;;;;5344296;26;20264;-41
2024/04/18 10:33:38;;;;;;;243.73;83.43;;;;;;;;;;5344008;26;20270;-41
2024/04/18 10:36:08;;;;;;;241.80;78.57;;;;;;;;;;5343941;26;20226;-41
2024/04/18 10:38:34;;;;;;;244.53;80.47;;;;;;;;;;5344116;26;20447;-41
2024/04/18 10:41:03;;;;;;;247.57;85.20;;;;;;;;;;5344639;26;20461;-42
2024/04/18 10:43:30;;;;;;;247.87;83.43;;;;;;;;;;5344429;26;20508;-42
2024/04/18 10:45:56;;;;;;;250.77;87.43;;;;;;;;;;5343310;26;20461;-41
2024/04/18 10:48:22;;;;;;;251.13;87.67;;;;;;;;;;5339886;26;20574;-41
2024/04/18 10:50:49;;;;;;;251.37;90.93;;;;;;;;;;5345673;26;20455;-41
2024/04/18 10:53:15;;;;;;;248.70;84.13;;;;;;;;;;5346835;26;20509;-41
2024/04/18 10:55:41;;;;;;;248.07;87.13;;;;;;;;;;5344116;26;20896;-41
2024/04/18 10:58:09;;;;;;;251.50;89.43;;;;;;;;;;5343722;26;20585;-42
2024/04/18 11:00:35;;;;;;;251.23;90.57;;;;;;;;;;5344345;26;20493;-41
2024/04/18 11:03:01;;;;;;;253.10;94.33;;;;;;;;;;5343808;26;20476;-41
2024/04/18 11:05:27;;;;;;;249.00;86.47;;;;;;;;;;5344509;26;20515;-41
2024/04/18 11:07:53;;;;;;;248.73;86.63;;;;;;;;;;5343510;26;20562;-41
2024/04/18 11:10:20;;;;;;;248.77;84.80;;;;;;;;;;5343717;26;20464;-41
2024/04/18 11:12:46;;;;;;;250.07;84.03;;;;;;;;;;5343261;26;20521;-41
2024/04/18 11:15:16;;;;;;;249.95;85.05;;;;;;;;;;5343218;26;20493;-41
2024/04/18 11:17:42;;;;;;;246.10;79.10;;;;;;;;;;5341074;26;20215;-41
2024/04/18 11:20:13;;;;;;;239.67;74.23;;;;;;;;;;5341354;26;20521;-41
2024/04/18 11:22:39;;;;;;;246.93;82.13;;;;;;;;;;5348135;26;21065;-41
2024/04/18 11:25:07;;;;;;;246.77;81.80;;;;;;;;;;5342735;26;20449;-41
2024/04/18 11:27:39;;;;;;;244.23;80.80;;;;;;;;;;5341180;26;20445;-41
2024/04/18 11:30:06;;;;;;;243.13;80.87;;;;;;;;;;5343460;26;20555;-41
2024/04/18 11:32:32;;;;;;;245.83;85.33;;;;;;;;;;5343595;26;20948;-41
2024/04/18 11:34:58;;;;;;;243.40;78.50;;;;;;;;;;5343220;26;20460;-41
2024/04/18 11:37:24;;;;;;;247.27;87.37;;;;;;;;;;5343375;26;21324;-41
2024/04/18 11:39:50;;;;;;;247.00;84.23;;;;;;;;;;5343607;26;20461;-41
2024/04/18 11:42:16;;;;;;;246.20;80.83;;;;;;;;;;5343206;26;20983;-41
2024/04/18 11:44:44;;;;;;;244.43;80.50;;;;;;;;;;5341825;26;20981;-41
2024/04/18 11:47:10;;;;;;;246.20;82.90;;;;;;;;;;5342634;26;20453;-41
2024/04/18 11:49:36;;;;;;;244.67;81.33;;;;;;;;;;5343306;26;20578;-41
2024/04/18 11:52:02;;;;;;;246.23;83.03;;;;;;;;;;5342848;26;21079;-41
2024/04/18 11:54:29;;;;;;;245.90;84.67;;;;;;;;;;5343247;26;20507;-41
2024/04/18 11:56:55;;;;;;;242.27;77.43;;;;;;;;;;5342313;26;20446;-41
2024/04/18 11:59:21;;;;;;;243.77;79.27;;;;;;;;;;5341970;26;20448;-40
2024/04/18 12:01:47;;;;;;;244.77;82.77;;;;;;;;;;5343160;26;20449;-41
2024/04/18 12:04:13;;;;;;;249.77;88.60;;;;;;;;;;5343397;26;20861;-41
2024/04/18 12:06:39;;;;;;;243.18;81.93;;;;;;;;;;5342681;26;20452;-41
2024/04/18 12:09:05;;;;;;;250.23;90.27;;;;;;;;;;5343078;26;20294;-41
2024/04/18 12:11:31;;;;;;;249.60;87.17;;;;;;;;;;5342837;26;20511;-41
2024/04/18 12:13:57;;;;;;;248.50;87.87;;;;;;;;;;5342733;26;21008;-41
2024/04/18 12:16:24;;;;;;;251.37;91.07;;;;;;;;;;5342203;26;20457;-41
2024/04/18 12:18:51;;;;;;;253.30;95.63;;;;;;;;;;5342623;26;20528;-41
2024/04/18 12:21:17;;;;;;;252.67;95.67;;;;;;;;;;5347257;26;20503;-41
2024/04/18 12:23:43;;;;;;;247.60;88.30;;;;;;;;;;5342984;26;20457;-42
2024/04/18 12:26:12;;;;;;;254.57;96.50;;;;;;;;;;5342281;26;20445;-41
2024/04/18 12:28:38;;;;;;;252.67;90.97;;;;;;;;;;5342823;26;20452;-41
2024/04/18 12:31:04;;;;;;;254.83;95.13;;;;;;;;;;5342588;26;20807;-41
2024/04/18 12:33:30;;;;;;;244.20;81.57;;;;;;;;;;5342412;26;21054;-41
2024/04/18 12:35:56;;;;;;;244.40;79.97;;;;;;;;;;5341991;26;20573;-41
2024/04/18 12:38:22;;;;;;;243.20;77.37;;;;;;;;;;5342132;26;20451;-41
2024/04/18 12:40:48;;;;;;;244.73;82.37;;;;;;;;;;5342242;26;20458;-41
2024/04/18 12:43:15;;;;;;;247.00;86.43;;;;;;;;;;5342317;26;20510;-41
2024/04/18 12:45:41;;;;;;;246.67;83.70;;;;;;;;;;5342056;26;20510;-41
2024/04/18 12:48:07;;;;;;;245.00;81.30;;;;;;;;;;5342474;26;20455;-41
2024/04/18 12:50:34;;;;;;;244.40;80.57;;;;;;;;;;5342141;26;20800;-41
2024/04/18 12:53:00;;;;;;;242.30;78.50;;;;;;;;;;5342262;26;20469;-41
2024/04/18 12:55:27;;;;;;;243.97;79.80;;;;;;;;;;5341760;26;20512;-41
2024/04/18 12:57:53;;;;;;;244.17;81.27;;;;;;;;;;5342113;26;20456;-41
2024/04/18 13:00:19;;;;;;;245.23;82.87;;;;;;;;;;5341439;26;20465;-41
2024/04/18 13:02:45;;;;;;;241.67;78.27;;;;;;;;;;5342205;26;20583;-41
2024/04/18 13:05:11;;;;;;;252.47;88.93;;;;;;;;;;5341988;26;20510;-41
2024/04/18 13:07:37;;;;;;;243.30;80.00;;;;;;;;;;5342431;26;20448;-41
2024/04/18 13:10:05;;;;;;;243.90;81.00;;;;;;;;;;5343973;26;20449;-41
2024/04/18 13:12:32;;;;;;;243.90;82.67;;;;;;;;;;5345499;26;20583;-41
2024/04/18 13:14:57;;;;;;;250.13;87.23;;;;;;;;;;5344897;26;20457;-41
2024/04/18 13:17:24;;;;;;;242.47;82.37;;;;;;;;;;5345265;26;21120;-41
2024/04/18 13:19:51;;;;;;;243.77;80.00;;;;;;;;;;5344280;26;20568;-41
2024/04/18 13:22:17;;;;;;;241.80;77.63;;;;;;;;;;5349899;26;20815;-41
2024/04/18 13:24:47;;;;;;;247.17;85.70;;;;;;;;;;5345325;26;20497;-41
2024/04/18 13:27:13;;;;;;;242.10;78.57;;;;;;;;;;5345386;26;20506;-41
2024/04/18 13:29:39;;;;;;;245.13;81.83;;;;;;;;;;5345143;26;20456;-41
2024/04/18 13:32:05;;;;;;;245.97;84.87;;;;;;;;;;5345320;26;21115;-41
2024/04/18 13:34:32;;;;;;;244.43;82.90;;;;;;;;;;5345069;26;20534;-41
2024/04/18 13:36:57;;;;;;;243.33;81.73;;;;;;;;;;5344632;26;20507;-41
2024/04/18 13:39:24;;;;;;;249.70;87.90;;;;;;;;;;5344923;26;20464;-42
2024/04/18 13:41:50;;;;;;;253.60;94.90;;;;;;;;;;5343242;26;20854;-41
2024/04/18 13:44:16;;;;;;;246.67;84.00;;;;;;;;;;5344851;26;20837;-41
2024/04/18 13:46:45;;;;;;;244.80;80.90;;;;;;;;;;5344972;26;20453;-41
2024/04/18 13:49:11;;;;;;;247.50;84.87;;;;;;;;;;5345327;26;20462;-41
2024/04/18 13:51:37;;;;;;;246.37;88.50;;;;;;;;;;5344871;26;20450;-41
2024/04/18 13:54:03;;;;;;;244.90;84.53;;;;;;;;;;5344739;26;20548;-41
2024/04/18 13:56:29;;;;;;;247.57;86.10;;;;;;;;;;5353303;26;21014;-41
2024/04/18 13:58:55;;;;;;;253.60;94.93;;;;;;;;;;5344816;26;20915;-41
2024/04/18 14:01:21;;;;;;;247.37;87.70;;;;;;;;;;5344901;26;20453;-41